Time;durP1;ratioP1;P1;durP2;ratioP2;P2;SDS_P1;SDS_P2;PMS_P1;PMS_P2;Temp;Humidity;BMP_temperature;BMP_pressure;BME280_temperature;BME280_humidity;BME280_pressure;Samples;Min_cycle;Max_cycle;Signal;HPM_P1;HPM_P2
2023/01/01 00:01:09;;;;;;;26.90;16.67;;;5.70;99.90;;;;;;6135006;23;20052;-69
2023/01/01 00:03:35;;;;;;;53.67;18.52;;;5.60;99.90;;;;;;6135183;23;20052;-68
2023/01/01 00:06:08;;;;;;;37.72;18.15;;;5.50;99.90;;;;;;6136091;23;20001;-68
2023/01/01 00:08:34;;;;;;;44.92;18.80;;;5.50;99.90;;;;;;6137694;23;20829;-68
2023/01/01 00:11:04;;;;;;;36.92;19.88;;;5.50;99.90;;;;;;6133575;23;20002;-68
2023/01/01 00:13:30;;;;;;;39.38;19.05;;;5.50;99.90;;;;;;6133065;23;20512;-68
2023/01/01 00:15:55;;;;;;;38.63;19.67;;;5.50;99.90;;;;;;6132257;23;20024;-68
2023/01/01 00:18:21;;;;;;;74.82;19.85;;;5.50;99.90;;;;;;6129310;23;20119;-68
2023/01/01 00:20:47;;;;;;;89.03;20.52;;;5.50;99.90;;;;;;6133227;23;20002;-68
2023/01/01 00:23:12;;;;;;;72.60;19.77;;;5.50;99.90;;;;;;6107596;23;20048;-68
2023/01/01 00:25:39;;;;;;;71.32;20.02;;;5.50;99.90;;;;;;6137013;23;20354;-67
2023/01/01 00:28:06;;;;;;;69.82;20.17;;;5.50;99.90;;;;;;6135193;23;20683;-67
2023/01/01 00:30:31;;;;;;;60.72;19.23;;;5.40;99.90;;;;;;6135410;23;20041;-67
2023/01/01 00:32:57;;;;;;;89.45;20.30;;;5.40;99.90;;;;;;6135168;23;20503;-67
2023/01/01 00:35:26;;;;;;;77.40;20.17;;;5.30;99.90;;;;;;6132164;23;20009;-67
2023/01/01 00:37:53;;;;;;;53.80;21.13;;;5.30;99.90;;;;;;6134324;23;20024;-67
2023/01/01 00:40:18;;;;;;;55.53;23.40;;;5.40;99.90;;;;;;6134564;23;20128;-67
2023/01/01 00:42:44;;;;;;;90.40;19.92;;;5.40;99.90;;;;;;6108233;23;20312;-67
2023/01/01 00:45:10;;;;;;;40.13;18.98;;;5.40;99.90;;;;;;6138901;23;20615;-67
2023/01/01 00:47:35;;;;;;;51.42;18.77;;;5.40;99.90;;;;;;6134221;23;20103;-67
2023/01/01 00:50:01;;;;;;;68.50;21.33;;;5.40;99.90;;;;;;6134584;23;20328;-67
2023/01/01 00:52:27;;;;;;;80.20;23.48;;;5.40;99.90;;;;;;6134434;23;20759;-67
2023/01/01 00:54:53;;;;;;;71.47;25.17;;;5.40;99.90;;;;;;6132198;23;20009;-67
2023/01/01 00:57:18;;;;;;;130.30;25.92;;;5.40;99.90;;;;;;6135689;23;20024;-67
2023/01/01 00:59:44;;;;;;;123.28;24.27;;;5.40;99.90;;;;;;6128856;23;20009;-66
2023/01/01 01:02:09;;;;;;;77.75;23.63;;;5.40;99.90;;;;;;6137118;23;20817;-68
2023/01/01 01:04:35;;;;;;;104.88;21.90;;;5.40;99.90;;;;;;6139508;23;20072;-68
2023/01/01 01:07:01;;;;;;;77.00;23.42;;;5.40;99.90;;;;;;6137820;23;20088;-68
2023/01/01 01:09:27;;;;;;;84.30;24.95;;;5.50;99.90;;;;;;6135691;23;20068;-68
2023/01/01 01:11:52;;;;;;;64.55;26.70;;;5.40;99.90;;;;;;6134999;23;20009;-68
2023/01/01 01:14:18;;;;;;;106.18;25.92;;;5.40;99.90;;;;;;6136050;23;20016;-68
2023/01/01 01:16:43;;;;;;;92.45;28.15;;;5.40;99.90;;;;;;6135549;23;20024;-67
2023/01/01 01:19:14;;;;;;;90.07;26.13;;;5.40;99.90;;;;;;6132071;23;20001;-68
2023/01/01 01:21:40;;;;;;;55.92;28.45;;;5.50;99.90;;;;;;6135229;23;20449;-68
2023/01/01 01:24:06;;;;;;;56.17;27.45;;;5.50;99.90;;;;;;6136164;23;20380;-68
2023/01/01 01:26:32;;;;;;;84.93;27.67;;;5.60;99.90;;;;;;6133538;23;20056;-68
2023/01/01 01:28:58;;;;;;;49.20;26.95;;;5.60;99.90;;;;;;6135614;23;20434;-68
2023/01/01 01:31:27;;;;;;;71.78;28.80;;;5.50;99.90;;;;;;6130027;23;20001;-68
2023/01/01 01:33:53;;;;;;;58.92;28.58;;;5.60;99.90;;;;;;6134655;23;20036;-68
2023/01/01 01:36:19;;;;;;;61.55;29.10;;;5.60;99.90;;;;;;6110781;23;20716;-68
2023/01/01 01:38:45;;;;;;;75.35;33.60;;;5.70;99.90;;;;;;6136604;23;20489;-67
2023/01/01 01:41:16;;;;;;;59.25;32.53;;;5.70;99.90;;;;;;6137484;23;20330;-67
2023/01/01 01:43:42;;;;;;;60.30;32.33;;;5.70;99.90;;;;;;6135754;23;20006;-67
2023/01/01 01:46:25;;;;;;;65.45;30.45;;;5.80;99.90;;;;;;6137712;23;20140;-67
2023/01/01 01:48:51;;;;;;;66.85;34.35;;;5.80;99.90;;;;;;6099570;23;20020;-67
2023/01/01 01:51:32;;;;;;;65.88;37.78;;;5.80;99.90;;;;;;6132394;23;20027;-66
2023/01/01 01:54:02;;;;;;;62.47;32.65;;;5.80;99.90;;;;;;6131452;23;20032;-66
2023/01/01 01:56:39;;;;;;;66.25;31.88;;;5.80;99.90;;;;;;6137682;23;20013;-68
2023/01/01 01:59:05;;;;;;;63.30;32.83;;;5.90;99.90;;;;;;6136511;23;20006;-68
2023/01/01 02:01:31;;;;;;;78.35;32.08;;;5.90;99.90;;;;;;6135424;23;20020;-67
2023/01/01 02:03:58;;;;;;;88.30;30.83;;;5.90;99.90;;;;;;6138617;23;20032;-67
2023/01/01 02:06:26;;;;;;;93.18;32.78;;;5.80;99.90;;;;;;6111442;23;20013;-67
2023/01/01 02:08:53;;;;;;;61.17;30.33;;;5.80;99.90;;;;;;6137507;23;20434;-67
2023/01/01 02:11:18;;;;;;;73.70;30.35;;;5.80;99.90;;;;;;6139044;23;20037;-68
2023/01/01 02:13:44;;;;;;;96.35;28.85;;;5.80;99.90;;;;;;6110062;23;20037;-67
2023/01/01 02:16:22;;;;;;;70.40;27.92;;;5.80;99.90;;;;;;6129704;23;20006;-68
2023/01/01 02:19:08;;;;;;;119.22;24.17;;;5.90;99.90;;;;;;6133946;23;20009;-69
2023/01/01 02:22:02;;;;;;;51.40;22.85;;;5.80;99.90;;;;;;6138475;23;20002;-68
2023/01/01 02:25:00;;;;;;;42.38;21.83;;;5.80;99.90;;;;;;6139085;23;20515;-68
2023/01/01 02:27:46;;;;;;;41.88;23.45;;;5.80;99.90;;;;;;6072670;23;20013;-67
2023/01/01 02:30:12;;;;;;;63.60;23.38;;;5.80;99.90;;;;;;6076366;23;20045;-68
2023/01/01 02:33:00;;;;;;;51.35;24.52;;;5.80;99.90;;;;;;6137387;23;20006;-67
2023/01/01 02:35:35;;;;;;;41.65;23.65;;;5.80;99.90;;;;;;6134320;23;20009;-67
2023/01/01 02:38:15;;;;;;;49.40;25.80;;;5.90;99.90;;;;;;6135961;23;20045;-68
2023/01/01 02:40:45;;;;;;;43.75;26.65;;;5.90;99.90;;;;;;6138250;23;20364;-67
2023/01/01 02:43:11;;;;;;;45.72;27.45;;;6.00;99.90;;;;;;6109779;23;20009;-67
2023/01/01 02:45:37;;;;;;;42.50;26.70;;;6.00;99.90;;;;;;6135797;23;20104;-67
2023/01/01 02:48:26;;;;;;;53.70;31.52;;;6.10;99.90;;;;;;6136086;23;20005;-68
2023/01/01 02:50:54;;;;;;;54.70;31.05;;;6.20;99.90;;;;;;6132854;23;20005;-68
2023/01/01 02:53:31;;;;;;;44.97;27.92;;;6.20;99.90;;;;;;6136507;23;20005;-68
2023/01/01 02:56:11;;;;;;;52.60;33.15;;;6.20;99.90;;;;;;6136331;23;20033;-68
2023/01/01 03:02:00;;;;;;;38.47;21.40;;;6.20;99.90;;;;;;6135743;23;20032;-67
2023/01/01 03:05:27;;;;;;;63.58;20.70;;;6.20;99.90;;;;;;6131375;23;20020;-68
2023/01/01 03:07:59;;;;;;;54.55;23.02;;;6.20;99.90;;;;;;6055645;23;20077;-68
2023/01/01 03:10:40;;;;;;;49.65;25.15;;;6.20;99.90;;;;;;6110159;23;20013;-68
2023/01/01 03:13:24;;;;;;;47.42;25.13;;;6.10;99.90;;;;;;6138501;23;19997;-67
2023/01/01 03:16:08;;;;;;;33.30;22.95;;;6.10;99.90;;;;;;6137847;23;20058;-67
2023/01/01 03:18:41;;;;;;;37.90;21.90;;;6.10;99.90;;;;;;6139179;23;20132;-68
2023/01/01 03:21:08;;;;;;;51.83;23.33;;;6.10;99.90;;;;;;6137118;23;20006;-67
2023/01/01 03:23:37;;;;;;;50.63;22.35;;;6.10;99.90;;;;;;6138278;23;20826;-68
2023/01/01 03:26:08;;;;;;;53.85;23.10;;;6.10;99.90;;;;;;6134501;23;20418;-68
2023/01/01 03:28:48;;;;;;;56.78;24.38;;;6.10;99.90;;;;;;6139589;23;20187;-66
2023/01/01 03:31:18;;;;;;;43.97;22.77;;;6.10;99.90;;;;;;6138010;23;20010;-68
2023/01/01 03:33:58;;;;;;;63.72;24.23;;;6.20;99.90;;;;;;6138514;23;20029;-67
2023/01/01 03:36:29;;;;;;;40.92;23.45;;;6.20;99.90;;;;;;6137483;23;20088;-67
2023/01/01 03:39:00;;;;;;;48.50;24.87;;;6.20;99.90;;;;;;6141151;23;20117;-68
2023/01/01 03:41:34;;;;;;;48.65;24.38;;;6.30;99.90;;;;;;6109562;23;20040;-67
2023/01/01 03:44:11;;;;;;;49.13;23.58;;;6.30;99.90;;;;;;6139644;23;20446;-68
2023/01/01 03:46:37;;;;;;;52.65;23.45;;;6.20;99.90;;;;;;6139900;23;20037;-68
2023/01/01 03:49:06;;;;;;;38.38;24.10;;;6.20;99.90;;;;;;6139117;23;20068;-67
2023/01/01 03:51:51;;;;;;;38.42;23.20;;;6.20;99.90;;;;;;6139138;23;20009;-66
2023/01/01 03:54:33;;;;;;;40.33;22.40;;;6.30;99.90;;;;;;6140264;23;20056;-67
2023/01/01 03:57:09;;;;;;;;;;;6.30;99.90;;;;;;6137538;23;20013;-66
2023/01/01 03:59:58;;;;;;;38.45;22.30;;;6.30;99.90;;;;;;6135894;23;19991;-67
2023/01/01 04:02:30;;;;;;;50.90;23.65;;;6.30;99.90;;;;;;6135546;23;20013;-67
2023/01/01 04:04:58;;;;;;;38.83;22.52;;;6.30;99.90;;;;;;6136499;23;20060;-67
2023/01/01 04:07:24;;;;;;;56.67;25.08;;;6.30;99.90;;;;;;6136982;23;20014;-66
2023/01/01 04:09:54;;;;;;;50.03;23.75;;;6.30;99.90;;;;;;6140680;23;20011;-67
2023/01/01 04:12:20;;;;;;;60.65;24.20;;;6.30;99.90;;;;;;6139997;23;20006;-67
2023/01/01 04:14:46;;;;;;;47.45;25.40;;;6.30;99.90;;;;;;6138856;23;20002;-67
2023/01/01 04:17:12;;;;;;;51.40;24.58;;;6.40;99.90;;;;;;6136675;23;20080;-68
2023/01/01 04:19:38;;;;;;;58.35;25.35;;;6.40;99.90;;;;;;6138861;23;20006;-67
2023/01/01 04:22:04;;;;;;;49.70;26.92;;;6.40;99.90;;;;;;6142149;23;20758;-67
2023/01/01 04:24:30;;;;;;;54.83;26.90;;;6.30;99.90;;;;;;6135761;23;20506;-67
2023/01/01 04:26:55;;;;;;;49.47;25.55;;;6.30;99.90;;;;;;6139188;23;20005;-68
2023/01/01 04:29:22;;;;;;;64.70;24.65;;;6.30;99.90;;;;;;6138721;23;20001;-68
2023/01/01 04:31:48;;;;;;;61.72;23.98;;;6.40;99.90;;;;;;6140846;23;20012;-68
2023/01/01 04:34:14;;;;;;;46.63;23.33;;;6.20;99.90;;;;;;6139810;23;20005;-68
2023/01/01 04:36:40;;;;;;;40.90;24.38;;;6.20;99.90;;;;;;6140293;23;20017;-68
2023/01/01 04:39:06;;;;;;;38.70;23.38;;;6.20;99.90;;;;;;6140977;23;20438;-67
2023/01/01 04:41:32;;;;;;;39.15;23.80;;;6.20;99.90;;;;;;6139442;23;20001;-67
2023/01/01 04:43:58;;;;;;;54.00;23.40;;;6.20;99.90;;;;;;6139869;23;20009;-68
2023/01/01 04:46:24;;;;;;;69.03;25.27;;;6.20;99.90;;;;;;6113444;23;20027;-68
2023/01/01 04:48:50;;;;;;;55.72;25.27;;;6.30;99.90;;;;;;6140331;23;20716;-68
2023/01/01 04:51:17;;;;;;;49.30;23.77;;;6.30;99.90;;;;;;6139561;23;20032;-68
2023/01/01 04:53:43;;;;;;;44.80;22.52;;;6.30;99.90;;;;;;6140609;23;20001;-68
2023/01/01 04:56:12;;;;;;;48.15;23.90;;;6.30;99.90;;;;;;6138759;23;20025;-69
2023/01/01 04:58:39;;;;;;;58.63;24.08;;;6.30;99.90;;;;;;6138775;23;20048;-68
2023/01/01 05:01:06;;;;;;;35.80;21.88;;;6.20;99.90;;;;;;6140248;23;20594;-68
2023/01/01 05:03:32;;;;;;;64.80;23.17;;;6.30;99.90;;;;;;6138385;23;20010;-68
2023/01/01 05:06:03;;;;;;;73.75;23.08;;;6.30;99.90;;;;;;6138046;23;20473;-68
2023/01/01 05:08:30;;;;;;;46.33;23.10;;;6.30;99.90;;;;;;6113723;23;20013;-68
2023/01/01 05:11:00;;;;;;;55.03;23.95;;;6.30;99.90;;;;;;6139808;23;20431;-68
2023/01/01 05:13:26;;;;;;;52.10;23.40;;;6.30;99.90;;;;;;6139026;23;20028;-68
2023/01/01 05:15:52;;;;;;;37.85;23.75;;;6.20;99.90;;;;;;6137607;23;20411;-68
2023/01/01 05:18:18;;;;;;;45.17;26.20;;;6.20;99.90;;;;;;6137990;23;20021;-68
2023/01/01 05:20:43;;;;;;;39.80;24.13;;;6.20;99.90;;;;;;6137107;23;20001;-68
2023/01/01 05:23:09;;;;;;;40.47;23.25;;;6.30;99.90;;;;;;6140824;23;20009;-68
2023/01/01 05:25:34;;;;;;;57.92;25.02;;;6.30;99.90;;;;;;6113067;23;20112;-68
2023/01/01 05:28:00;;;;;;;42.30;24.27;;;6.30;99.90;;;;;;6140793;23;20012;-68
2023/01/01 05:30:26;;;;;;;45.28;23.73;;;6.20;99.90;;;;;;6139204;23;20344;-68
2023/01/01 05:32:51;;;;;;;34.58;24.13;;;6.30;99.90;;;;;;6140754;23;20101;-68
2023/01/01 05:35:17;;;;;;;39.05;23.85;;;6.30;99.90;;;;;;6136732;23;20006;-68
2023/01/01 05:37:42;;;;;;;38.55;23.90;;;6.40;99.90;;;;;;6141783;23;20021;-67
2023/01/01 05:40:09;;;;;;;37.72;21.88;;;6.40;99.90;;;;;;6115808;23;20088;-68
2023/01/01 05:42:35;;;;;;;42.30;24.38;;;6.40;99.90;;;;;;6137137;23;20037;-68
2023/01/01 05:45:01;;;;;;;39.90;24.20;;;6.50;99.90;;;;;;6139658;23;20032;-68
2023/01/01 05:47:27;;;;;;;43.80;23.70;;;6.50;99.90;;;;;;6140947;23;20060;-68
2023/01/01 05:49:53;;;;;;;47.58;24.10;;;6.40;99.90;;;;;;6140047;23;20364;-68
2023/01/01 05:52:18;;;;;;;63.50;25.50;;;6.40;99.90;;;;;;6136962;23;20426;-68
2023/01/01 05:54:44;;;;;;;38.42;23.00;;;6.40;99.90;;;;;;6138436;23;19997;-68
2023/01/01 05:57:10;;;;;;;41.75;25.35;;;6.40;99.90;;;;;;6140362;23;20434;-68
2023/01/01 05:59:35;;;;;;;39.53;22.63;;;6.40;99.90;;;;;;6139720;23;20084;-68
2023/01/01 06:02:01;;;;;;;68.38;24.23;;;6.40;99.90;;;;;;6138477;23;20010;-69
2023/01/01 06:04:27;;;;;;;65.38;24.42;;;6.40;99.90;;;;;;6139238;23;20419;-68
2023/01/01 06:06:52;;;;;;;59.50;25.48;;;6.40;99.90;;;;;;6139049;23;20005;-68
2023/01/01 06:09:18;;;;;;;48.10;24.75;;;6.30;99.90;;;;;;6137065;23;20040;-68
2023/01/01 06:11:44;;;;;;;48.95;25.63;;;6.30;99.90;;;;;;6136975;23;20072;-68
2023/01/01 06:14:09;;;;;;;47.35;24.58;;;6.30;99.90;;;;;;6137821;23;20721;-68
2023/01/01 06:16:35;;;;;;;56.60;26.77;;;6.40;99.90;;;;;;6135493;23;20343;-68
2023/01/01 06:19:01;;;;;;;54.03;25.90;;;6.40;99.90;;;;;;6138827;23;20024;-68
2023/01/01 06:21:28;;;;;;;68.20;26.70;;;6.40;99.90;;;;;;6139948;23;20375;-68
2023/01/01 06:23:59;;;;;;;91.97;26.73;;;6.40;99.90;;;;;;6140451;23;20040;-68
2023/01/01 06:26:30;;;;;;;66.55;26.95;;;6.40;99.90;;;;;;6140951;23;20053;-68
2023/01/01 06:28:57;;;;;;;45.77;27.87;;;6.30;99.90;;;;;;6141220;23;20016;-68
2023/01/01 06:31:24;;;;;;;55.63;25.15;;;6.30;99.90;;;;;;6139449;23;20044;-68
2023/01/01 06:33:50;;;;;;;55.20;26.00;;;6.30;99.90;;;;;;6137422;23;20033;-68
2023/01/01 06:36:18;;;;;;;42.70;25.48;;;6.30;99.90;;;;;;6139649;23;20009;-68
2023/01/01 06:38:46;;;;;;;43.97;25.50;;;6.30;99.90;;;;;;6138866;23;20005;-68
2023/01/01 06:41:15;;;;;;;44.90;24.77;;;6.20;99.90;;;;;;6136201;23;20001;-68
2023/01/01 06:43:40;;;;;;;47.60;25.00;;;6.20;99.90;;;;;;6139415;23;20029;-68
2023/01/01 06:46:21;;;;;;;43.97;25.00;;;6.10;99.90;;;;;;6140693;23;20104;-68
2023/01/01 06:48:49;;;;;;;35.65;23.98;;;6.20;99.90;;;;;;6137867;23;20953;-68
2023/01/01 06:51:23;;;;;;;40.40;23.92;;;6.20;99.90;;;;;;6136605;23;20001;-68
2023/01/01 06:53:49;;;;;;;37.28;23.58;;;6.20;99.90;;;;;;6138537;23;20016;-68
2023/01/01 06:56:16;;;;;;;46.70;24.60;;;6.30;99.90;;;;;;6138698;23;20013;-68
2023/01/01 06:58:42;;;;;;;34.38;22.70;;;6.30;99.90;;;;;;6135942;23;20009;-68
2023/01/01 07:01:16;;;;;;;43.17;20.65;;;6.20;99.90;;;;;;6139368;23;20813;-68
2023/01/01 07:03:43;;;;;;;34.75;20.75;;;6.20;99.90;;;;;;6139234;23;20009;-69
2023/01/01 07:06:09;;;;;;;32.03;19.70;;;6.30;99.90;;;;;;6137646;23;20036;-68
2023/01/01 07:08:36;;;;;;;30.23;20.48;;;6.20;99.90;;;;;;6138238;23;20033;-68
2023/01/01 07:11:02;;;;;;;29.48;18.90;;;6.20;99.90;;;;;;6138847;23;19997;-68
2023/01/01 07:13:29;;;;;;;31.00;18.83;;;6.20;99.90;;;;;;6137950;23;20009;-67
2023/01/01 07:15:55;;;;;;;39.03;17.52;;;6.20;99.90;;;;;;6136939;23;20012;-67
2023/01/01 07:18:22;;;;;;;36.00;18.25;;;6.20;99.90;;;;;;6138608;23;20013;-67
2023/01/01 07:20:53;;;;;;;41.60;18.27;;;6.10;99.90;;;;;;6138051;23;20081;-67
2023/01/01 07:23:18;;;;;;;22.63;17.48;;;6.10;99.90;;;;;;6138803;23;20013;-68
2023/01/01 07:25:44;;;;;;;25.65;17.15;;;6.20;99.90;;;;;;6132829;23;20021;-67
2023/01/01 07:28:11;;;;;;;39.58;18.52;;;6.10;99.90;;;;;;6139647;23;20028;-68
2023/01/01 07:30:37;;;;;;;291.55;205.63;;;6.10;99.90;;;;;;6134897;23;20092;-68
2023/01/01 07:33:02;;;;;;;71.45;38.10;;;6.20;99.90;;;;;;6136947;23;20365;-66
2023/01/01 07:35:28;;;;;;;49.33;31.45;;;6.10;99.90;;;;;;6135494;23;20025;-67
2023/01/01 07:37:53;;;;;;;34.92;29.90;;;6.10;99.90;;;;;;6137037;23;20725;-68
2023/01/01 07:40:19;;;;;;;45.25;24.02;;;6.10;99.90;;;;;;6138293;23;20652;-68
2023/01/01 07:42:45;;;;;;;39.25;19.50;;;6.10;99.90;;;;;;6139331;23;20037;-67
2023/01/01 07:45:13;;;;;;;30.88;19.52;;;6.10;99.90;;;;;;6139615;23;20001;-67
2023/01/01 07:47:39;;;;;;;34.88;19.67;;;6.10;99.90;;;;;;6137815;23;20138;-67
2023/01/01 07:50:05;;;;;;;31.05;19.30;;;6.10;99.90;;;;;;6138173;23;20005;-67
2023/01/01 07:52:31;;;;;;;45.72;20.13;;;6.10;99.90;;;;;;6138172;23;20010;-66
2023/01/01 07:54:56;;;;;;;28.67;17.60;;;6.10;99.90;;;;;;6140042;23;20001;-67
2023/01/01 07:57:22;;;;;;;30.85;17.55;;;6.10;99.90;;;;;;6137240;23;20552;-66
2023/01/01 07:59:48;;;;;;;22.55;16.55;;;6.20;99.90;;;;;;6138707;23;20005;-67
2023/01/01 08:02:13;;;;;;;33.20;16.95;;;6.20;99.90;;;;;;6139382;23;20012;-67
2023/01/01 08:04:39;;;;;;;28.27;15.95;;;6.20;99.90;;;;;;6112717;23;20052;-67
2023/01/01 08:07:05;;;;;;;31.83;17.08;;;6.20;99.90;;;;;;6137584;23;20006;-66
2023/01/01 08:09:30;;;;;;;28.75;16.15;;;6.20;99.90;;;;;;6138615;23;20013;-66
2023/01/01 08:11:57;;;;;;;37.17;16.17;;;6.20;99.90;;;;;;6131447;23;20001;-65
2023/01/01 08:14:24;;;;;;;33.80;20.95;;;6.20;99.90;;;;;;6137061;23;20009;-66
2023/01/01 08:16:50;;;;;;;33.50;21.95;;;6.20;99.90;;;;;;6136715;23;20232;-66
2023/01/01 08:19:16;;;;;;;23.50;17.35;;;6.20;99.90;;;;;;6138365;23;20752;-66
2023/01/01 08:21:41;;;;;;;33.25;23.08;;;6.20;99.90;;;;;;6133516;23;20517;-67
2023/01/01 08:24:07;;;;;;;38.13;28.83;;;6.20;99.90;;;;;;6133031;23;20096;-67
2023/01/01 08:26:34;;;;;;;24.75;19.20;;;6.20;99.90;;;;;;6136759;23;20105;-67
2023/01/01 08:29:05;;;;;;;32.00;21.67;;;6.20;99.90;;;;;;6137722;23;20542;-67
2023/01/01 08:31:31;;;;;;;35.65;26.25;;;6.20;99.90;;;;;;6138326;23;20342;-67
2023/01/01 08:33:56;;;;;;;32.58;24.42;;;6.30;99.90;;;;;;6138905;23;20431;-67
2023/01/01 08:36:22;;;;;;;25.92;18.77;;;6.40;99.90;;;;;;6135481;23;20005;-68
2023/01/01 08:38:47;;;;;;;32.25;23.90;;;6.40;99.90;;;;;;6137955;23;20013;-67
2023/01/01 08:41:13;;;;;;;37.72;23.48;;;6.40;99.90;;;;;;6138538;23;20001;-67
2023/01/01 08:43:39;;;;;;;30.30;16.90;;;6.50;99.90;;;;;;6136810;23;20005;-68
2023/01/01 08:46:04;;;;;;;34.47;27.20;;;6.50;99.90;;;;;;6136041;23;20087;-68
2023/01/01 08:48:30;;;;;;;21.02;17.70;;;6.50;99.90;;;;;;6138345;23;20013;-68
2023/01/01 08:51:01;;;;;;;40.92;30.08;;;6.50;99.90;;;;;;6112902;23;20071;-69
2023/01/01 08:53:31;;;;;;;48.65;31.10;;;6.50;99.90;;;;;;6138395;23;20010;-69
2023/01/01 08:56:06;;;;;;;33.08;22.10;;;6.50;99.90;;;;;;6111142;23;20001;-69
2023/01/01 08:58:32;;;;;;;26.25;16.25;;;6.50;99.90;;;;;;6138133;23;20056;-69
2023/01/01 09:01:01;;;;;;;35.10;15.73;;;6.50;99.90;;;;;;6135001;23;20021;-69
2023/01/01 09:03:27;;;;;;;27.33;17.92;;;6.50;99.90;;;;;;6139655;23;20005;-69
2023/01/01 09:05:53;;;;;;;29.30;17.13;;;6.60;99.90;;;;;;6112411;23;20005;-68
2023/01/01 09:08:20;;;;;;;86.85;50.42;;;6.50;99.90;;;;;;6136417;23;20014;-69
2023/01/01 09:10:46;;;;;;;35.17;18.45;;;6.50;99.90;;;;;;6137965;23;20002;-68
2023/01/01 09:13:15;;;;;;;124.38;64.97;;;6.60;99.90;;;;;;6140905;23;20596;-68
2023/01/01 09:15:44;;;;;;;116.10;70.78;;;6.60;99.90;;;;;;6137259;23;20080;-69
2023/01/01 09:18:10;;;;;;;136.88;98.53;;;6.70;99.90;;;;;;6140827;23;20096;-69
2023/01/01 09:20:37;;;;;;;56.38;40.58;;;6.70;99.90;;;;;;6138247;23;20467;-69
2023/01/01 09:23:03;;;;;;;45.28;35.03;;;6.60;99.90;;;;;;6137016;23;20020;-69
2023/01/01 09:25:29;;;;;;;46.60;32.03;;;6.60;99.90;;;;;;6136248;23;20423;-70
2023/01/01 09:28:04;;;;;;;62.97;45.78;;;6.60;99.90;;;;;;6137636;23;20441;-71
2023/01/01 09:30:30;;;;;;;25.20;16.60;;;6.70;99.90;;;;;;6138790;23;20427;-69
2023/01/01 09:32:55;;;;;;;29.80;18.52;;;6.60;99.90;;;;;;6140233;23;20002;-70
2023/01/01 09:35:21;;;;;;;27.98;15.73;;;6.60;99.90;;;;;;6139044;23;20096;-68
2023/01/01 09:37:47;;;;;;;24.95;15.50;;;6.60;99.90;;;;;;6140450;23;20423;-69
2023/01/01 09:40:47;;;;;;;26.27;16.15;;;6.50;99.90;;;;;;6139687;23;20024;-69
2023/01/01 09:43:42;;;;;;;28.25;14.07;;;6.50;99.90;;;;;;6140775;23;20005;-70
2023/01/01 09:46:10;;;;;;;23.25;14.13;;;6.60;99.90;;;;;;6144267;23;20005;-69
2023/01/01 09:48:40;;;;;;;22.02;14.80;;;6.70;99.90;;;;;;6145854;23;20108;-69
2023/01/01 09:51:14;;;;;;;19.77;14.57;;;6.70;99.90;;;;;;6117092;23;19998;-69
2023/01/01 09:53:44;;;;;;;23.75;15.07;;;6.80;99.90;;;;;;6144312;23;20012;-68
2023/01/01 09:56:16;;;;;;;24.13;14.07;;;6.80;99.90;;;;;;6139923;23;20008;-70
2023/01/01 09:58:42;;;;;;;22.58;17.60;;;6.90;99.90;;;;;;6143853;23;20024;-68
2023/01/01 10:01:36;;;;;;;22.42;15.10;;;6.90;99.90;;;;;;6143228;23;20587;-69
2023/01/01 10:04:20;;;;;;;22.25;14.20;;;6.90;99.90;;;;;;6143681;23;20494;-69
2023/01/01 10:07:11;;;;;;;18.00;13.40;;;6.80;99.90;;;;;;6143505;23;20010;-69
2023/01/01 10:09:45;;;;;;;21.75;14.48;;;6.90;99.90;;;;;;6143914;23;20009;-71
2023/01/01 10:12:52;;;;;;;28.10;14.38;;;7.00;99.90;;;;;;6144737;23;20005;-69
2023/01/01 10:15:23;;;;;;;19.80;13.90;;;7.00;99.90;;;;;;6128611;23;20009;-70
2023/01/01 10:17:53;;;;;;;21.67;14.63;;;7.00;99.90;;;;;;6142731;23;20079;-69
2023/01/01 10:20:23;;;;;;;20.90;14.48;;;7.10;99.90;;;;;;6140231;23;20013;-69
2023/01/01 10:23:02;;;;;;;23.08;13.43;;;7.10;99.90;;;;;;6144191;23;20926;-69
2023/01/01 10:25:31;;;;;;;27.30;13.95;;;7.10;99.90;;;;;;6140324;23;20429;-69
2023/01/01 10:28:10;;;;;;;23.02;13.15;;;7.10;99.90;;;;;;6136164;23;20076;-69
2023/01/01 10:30:36;;;;;;;19.30;13.82;;;7.10;99.90;;;;;;6112779;23;20532;-68
2023/01/01 10:33:07;;;;;;;19.63;12.98;;;7.20;99.90;;;;;;6139901;23;20005;-69
2023/01/01 10:35:38;;;;;;;18.80;13.80;;;7.20;99.90;;;;;;6139367;23;20008;-68
2023/01/01 10:38:04;;;;;;;19.45;13.43;;;7.10;99.90;;;;;;6143064;23;20020;-69
2023/01/01 10:40:30;;;;;;;18.52;13.55;;;7.20;99.90;;;;;;6144934;23;20060;-69
2023/01/01 10:42:58;;;;;;;19.77;12.40;;;7.20;99.90;;;;;;6142793;23;20009;-69
2023/01/01 10:45:59;;;;;;;17.13;13.60;;;7.20;99.90;;;;;;6144667;23;20002;-68
2023/01/01 10:48:26;;;;;;;17.02;13.30;;;7.20;99.90;;;;;;6080572;23;20033;-68
2023/01/01 10:51:00;;;;;;;22.23;13.48;;;7.20;99.90;;;;;;6144357;23;20009;-68
2023/01/01 10:53:49;;;;;;;20.02;14.23;;;7.30;99.90;;;;;;6144038;23;20076;-69
2023/01/01 10:56:17;;;;;;;24.98;15.05;;;7.30;99.90;;;;;;6142401;23;20005;-69
2023/01/01 10:58:44;;;;;;;17.50;13.35;;;7.40;99.90;;;;;;6138625;23;20027;-69
2023/01/01 11:01:18;;;;;;;20.17;13.48;;;7.40;99.90;;;;;;6144513;23;20005;-70
2023/01/01 11:03:58;;;;;;;21.95;12.85;;;7.40;99.90;;;;;;6142008;23;20016;-70
2023/01/01 11:06:35;;;;;;;34.38;13.63;;;7.50;99.90;;;;;;6142144;23;20077;-70
2023/01/01 11:09:30;;;;;;;22.63;13.43;;;7.50;99.90;;;;;;6141728;23;20024;-70
2023/01/01 11:12:02;;;;;;;27.98;13.95;;;7.50;99.90;;;;;;6141064;23;20033;-68
2023/01/01 11:14:42;;;;;;;39.90;13.73;;;7.60;99.90;;;;;;6141852;23;20009;-68
2023/01/01 11:17:09;;;;;;;37.47;14.07;;;7.50;99.90;;;;;;6144266;23;20081;-69
2023/01/01 11:19:36;;;;;;;35.05;14.10;;;7.50;99.90;;;;;;6136350;23;20447;-69
2023/01/01 11:22:04;;;;;;;35.72;14.57;;;7.50;99.90;;;;;;6141361;23;20033;-69
2023/01/01 11:24:31;;;;;;;36.92;17.10;;;7.50;99.90;;;;;;6142980;23;20135;-70
2023/01/01 11:27:12;;;;;;;24.27;14.50;;;7.40;99.90;;;;;;6145033;23;20006;-70
2023/01/01 11:29:38;;;;;;;19.60;12.70;;;7.50;99.90;;;;;;6144463;23;20016;-69
2023/01/01 11:32:07;;;;;;;23.50;13.38;;;7.50;99.90;;;;;;6146208;23;20041;-70
2023/01/01 11:34:38;;;;;;;42.30;16.92;;;7.60;99.90;;;;;;6140974;23;20127;-68
2023/01/01 11:37:08;;;;;;;21.80;13.07;;;7.60;99.90;;;;;;6135963;23;20784;-69
2023/01/01 11:39:36;;;;;;;15.85;12.98;;;7.60;99.90;;;;;;6140558;23;20060;-69
2023/01/01 11:42:02;;;;;;;21.40;11.48;;;7.60;99.90;;;;;;6136489;23;20002;-68
2023/01/01 11:44:43;;;;;;;28.52;12.00;;;7.70;99.90;;;;;;6135501;23;20525;-69
2023/01/01 11:47:27;;;;;;;16.92;12.23;;;7.80;99.90;;;;;;6098488;23;20557;-68
2023/01/01 11:50:14;;;;;;;21.27;12.23;;;7.80;99.90;;;;;;6135753;23;19998;-67
2023/01/01 11:52:43;;;;;;;14.45;10.48;;;7.80;99.90;;;;;;6113550;23;20017;-68
2023/01/01 11:55:34;;;;;;;16.60;10.88;;;7.80;99.90;;;;;;6138746;23;20048;-69
2023/01/01 11:58:18;;;;;;;20.55;12.60;;;7.80;99.90;;;;;;6136511;23;20076;-68
2023/01/01 12:00:51;;;;;;;17.52;13.20;;;7.80;99.90;;;;;;6135163;23;20013;-70
2023/01/01 12:03:36;;;;;;;19.40;12.32;;;7.80;99.90;;;;;;6139020;23;20046;-69
2023/01/01 12:06:25;;;;;;;16.30;12.07;;;7.80;99.90;;;;;;6134348;23;20077;-69
2023/01/01 12:08:58;;;;;;;60.97;37.75;;;7.80;99.90;;;;;;6117956;23;20088;-70
2023/01/01 12:11:36;;;;;;;51.05;37.53;;;7.90;99.90;;;;;;6133054;23;20002;-71
2023/01/01 12:14:26;;;;;;;47.65;36.20;;;7.90;99.90;;;;;;6135016;23;20352;-70
2023/01/01 12:17:01;;;;;;;22.10;14.35;;;7.90;99.90;;;;;;6134010;23;20040;-69
2023/01/01 12:19:35;;;;;;;26.70;20.95;;;7.90;99.90;;;;;;6136471;23;20786;-70
2023/01/01 12:22:01;;;;;;;20.00;14.15;;;7.90;99.90;;;;;;6135519;23;20006;-69
2023/01/01 12:24:33;;;;;;;34.50;16.48;;;8.00;99.90;;;;;;6135085;23;20001;-70
2023/01/01 12:27:20;;;;;;;25.58;15.13;;;8.00;99.90;;;;;;6135037;23;20063;-70
2023/01/01 12:29:58;;;;;;;26.80;13.45;;;8.00;99.90;;;;;;6135014;23;20068;-70
2023/01/01 12:32:33;;;;;;;20.13;15.13;;;8.00;99.90;;;;;;6140196;23;20020;-69
2023/01/01 12:35:37;;;;;;;25.60;15.80;;;8.00;99.90;;;;;;6135128;23;20001;-71
2023/01/01 12:38:05;;;;;;;26.92;17.65;;;7.90;99.90;;;;;;6136733;23;20521;-69
2023/01/01 12:40:50;;;;;;;21.80;14.95;;;8.00;99.90;;;;;;6136495;23;20001;-69
2023/01/01 12:43:49;;;;;;;29.30;19.80;;;8.00;99.90;;;;;;6113872;23;20009;-68
2023/01/01 12:46:32;;;;;;;17.92;12.93;;;8.00;99.90;;;;;;6136752;23;20021;-70
2023/01/01 12:49:13;;;;;;;14.70;11.38;;;8.10;99.90;;;;;;6137344;23;20081;-70
2023/01/01 12:51:58;;;;;;;24.02;12.65;;;8.10;99.90;;;;;;6137712;23;20401;-71
2023/01/01 12:54:39;;;;;;;15.88;11.82;;;8.10;99.90;;;;;;6138761;23;20028;-71
2023/01/01 12:57:29;;;;;;;19.42;12.77;;;8.10;99.90;;;;;;6143107;23;20092;-72